Crane, MO (65633)

6:58 AM CDT on August 30, 2015 (GMT -0500)
SE Clever | | Change Station
CLOSE
Current Station
Personal Weather Station
Location: Clever, MO
Elevation: 1358 ft
Nearby Weather Stations

Elev 1358 ft 37.01 °N, 93.45 °W | Updated 8 seconds ago

Mostly Cloudy
Mostly Cloudy
68.4 °F
Feels Like 68.4 °F
N
0.9
Wind Variable Wind from ESE
Gusts 2.5 mph

Today
High -- | Low -- °F
--% Chance of Precip.
Yesterday
High -- | Low -- °F
Precip. -- in
6:43 AM 7:45 PM
Full, 99% visible
Pressure 30.03 in
Visibility 3.0 miles
Clouds Scattered Clouds 6500 ft
Mostly Cloudy 11000 ft
Dew Point 67 °F
Humidity 96%
Rainfall 0.00 in
Snow Depth Not available.
UV 0.0 out of 12
Pollen 10.00 out of 12
Air Quality Not available.
Flu Activity Not available.
METAR KFWB 301135Z AUTO 08004KT 3SM VCTS BR SCT065 BKN110 20/20 A3003 RMK AO2 LTG DSNT ALQDS
Pressure 30.03 in
Visibility 3.0 miles
Clouds Scattered Clouds 6500 ft
Mostly Cloudy 11000 ft
Dew Point 67 °F
Humidity 96%
Rainfall 0.00 in
Snow Depth Not available.
UV 0.0 out of 12
Pollen 10.00 out of 12
Air Quality Not available.
Flu Activity Not available.
METAR KFWB 301135Z AUTO 08004KT 3SM VCTS BR SCT065 BKN110 20/20 A3003 RMK AO2 LTG DSNT ALQDS

10-Day Weather Forecast

×

Almanac

Astronomy

Aug. 30, 2015 Rise Set
Actual Time
Civil Twilight
Nautical Twilight
Astronomical Twilight
Moon
Length of Visible Light
Length of Day
Tomorrow will be .
, % of the Moon is Illuminated

Today's Extremes

State Highs State Lows

Community

WunderPhotos

Upload Photos

1,850,930 photos uploaded!

WunderBlogs® & News

Nearby

Air Quality

  Air Quality AQ Index Pollutant
Not available.

Snow Depth

Station Depth Elevation

Earthquake Activity

City Distance Mag. Time & Date
Minimum magnitude displayed is 2.5.

Coastal Water Temperatures

Place Temperature

Stations

Nearby Weather Stations

Station Location Temp. Windchill Dew Point Humidity Wind Precip. Elev Updated Type